Time;durP1;ratioP1;P1;durP2;ratioP2;P2;SDS_P1;SDS_P2;PMS_P1;PMS_P2;Temp;Humidity;BMP_temperature;BMP_pressure;BME280_temperature;BME280_humidity;BME280_pressure;Samples;Min_cycle;Max_cycle;Signal;HPM_P1;HPM_P2
2021/04/07 00:00:33;;;;;;;6.42;2.60;;;;;;;-2.77;81.39;98059.60;1678304;84;22265;-66
2021/04/07 00:03:03;;;;;;;9.23;2.65;;;;;;;-2.77;81.42;98068.54;1689521;83;21312;-65
2021/04/07 00:05:38;;;;;;;5.15;2.67;;;;;;;-2.76;81.44;98067.22;1688233;82;21267;-65
2021/04/07 00:08:06;;;;;;;3.33;2.33;;;;;;;-2.74;81.48;98074.86;1693601;84;21219;-65
2021/04/07 00:10:40;;;;;;;5.03;2.90;;;;;;;-2.75;81.44;98073.16;1687913;84;21231;-66
2021/04/07 00:13:10;;;;;;;4.90;2.55;;;;;;;-2.75;81.43;98078.27;1684628;84;21169;-66
2021/04/07 00:15:40;;;;;;;6.47;2.80;;;;;;;-2.75;81.49;98080.83;1682220;84;21348;-66
2021/04/07 00:18:08;;;;;;;5.00;2.58;;;;;;;-2.73;81.54;98080.36;1680399;82;21091;-65
2021/04/07 00:20:37;;;;;;;4.97;3.00;;;;;;;-2.72;81.56;98076.92;1694581;84;21160;-66
2021/04/07 00:23:06;;;;;;;4.12;2.60;;;;;;;-2.74;81.50;98080.81;1684759;84;21325;-65
2021/04/07 00:25:33;;;;;;;5.85;3.75;;;;;;;-2.73;81.54;98076.53;1677520;83;21197;-65
2021/04/07 00:30:39;;;;;;;6.10;3.05;;;;;;;-2.72;81.56;98070.54;1832748;76;22765;-65
2021/04/07 00:33:06;;;;;;;4.58;2.62;;;;;;;-2.76;81.58;98074.05;1802635;77;20997;-65
2021/04/07 00:35:35;;;;;;;6.10;2.75;;;;;;;-2.75;81.63;98070.61;1802624;78;22100;-64
2021/04/07 00:38:02;;;;;;;4.42;2.67;;;;;;;-2.76;81.66;98071.49;1796212;78;22296;-65
2021/04/07 00:40:29;;;;;;;8.40;3.62;;;;;;;-2.74;81.73;98078.70;1803383;78;21675;-64
2021/04/07 00:42:57;;;;;;;8.50;3.72;;;;;;;-2.73;81.72;98070.15;1802449;77;21028;-64
2021/04/07 00:45:24;;;;;;;5.28;3.20;;;;;;;-2.71;81.78;98072.24;1772871;79;26635;-64
2021/04/07 00:47:52;;;;;;;5.37;3.33;;;;;;;-2.67;81.93;98071.30;1804091;78;22838;-65
2021/04/07 00:50:22;;;;;;;6.50;3.47;;;;;;;-2.60;81.94;98075.42;1806121;78;21174;-64
2021/04/07 00:52:51;;;;;;;5.20;3.30;;;;;;;-2.53;81.98;98076.12;1796144;78;21048;-65
2021/04/07 00:55:22;;;;;;;5.17;3.25;;;;;;;-2.45;81.98;98078.52;1800734;78;21125;-65
2021/04/07 00:57:51;;;;;;;7.15;3.50;;;;;;;-2.34;82.04;98081.69;1802758;78;21640;-64
2021/04/07 01:00:19;;;;;;;6.80;3.50;;;;;;;-2.24;82.06;98080.63;1803161;77;21404;-66
2021/04/07 01:02:53;;;;;;;6.08;2.90;;;;;;;-2.14;82.05;98082.08;1798940;78;21239;-66
2021/04/07 01:05:21;;;;;;;5.12;2.70;;;;;;;-2.04;82.06;98077.17;1806559;78;21198;-67
2021/04/07 01:07:50;;;;;;;4.25;2.62;;;;;;;-1.95;81.98;98084.23;1798997;78;21124;-65
2021/04/07 01:10:18;;;;;;;6.03;2.90;;;;;;;-1.88;82.02;98071.69;1804327;77;21154;-65
2021/04/07 01:12:46;;;;;;;5.95;2.80;;;;;;;-1.82;82.01;98077.93;1801705;77;21401;-66
2021/04/07 01:15:15;;;;;;;4.87;2.83;;;;;;;-1.75;81.98;98079.48;1807317;77;21242;-66
2021/04/07 01:17:42;;;;;;;5.62;3.05;;;;;;;-1.69;82.00;98079.33;1799755;78;21632;-65
2021/04/07 01:20:12;;;;;;;;;;;;;;;-1.62;82.01;98077.48;1805428;77;21655;-66
2021/04/07 01:22:40;;;;;;;4.20;2.52;;;;;;;-1.52;82.02;98083.20;1800953;78;20200;-65
2021/04/07 01:25:11;;;;;;;7.30;2.75;;;;;;;-1.47;81.99;98080.92;1805672;77;21250;-66
2021/04/07 01:27:39;;;;;;;4.78;2.52;;;;;;;-1.41;82.04;98081.20;1798855;78;21515;-65
2021/04/07 01:30:12;;;;;;;8.05;2.52;;;;;;;-1.35;81.99;98071.64;1800805;78;21154;-65
2021/04/07 01:32:40;;;;;;;6.10;3.17;;;;;;;-1.31;81.97;98077.55;1804722;78;21240;-66
2021/04/07 01:35:10;;;;;;;7.15;3.10;;;;;;;-1.26;82.05;98079.96;1807094;78;21165;-66
2021/04/07 01:37:38;;;;;;;5.87;2.90;;;;;;;-1.22;82.03;98071.34;1811935;78;22113;-65
2021/04/07 01:40:15;;;;;;;4.35;2.92;;;;;;;-1.20;81.99;98066.58;1803741;78;21204;-66
2021/04/07 01:42:46;;;;;;;;;;;;;;;-1.16;82.03;98061.76;1798615;78;21230;-65
2021/04/07 01:45:15;;;;;;;3.75;2.37;;;;;;;-1.14;82.03;98060.00;1801718;77;20221;-65
2021/04/07 01:47:44;;;;;;;5.72;2.87;;;;;;;-1.10;82.03;98061.20;1809327;78;21549;-65
2021/04/07 01:50:11;;;;;;;7.17;2.72;;;;;;;-1.07;82.02;98062.40;1808281;78;21906;-65
2021/04/07 01:52:38;;;;;;;6.05;2.67;;;;;;;-1.04;82.06;98058.02;1803015;77;21164;-65
2021/04/07 01:55:07;;;;;;;4.75;2.85;;;;;;;-0.99;82.02;98063.03;1806092;78;21259;-66
2021/04/07 01:57:36;;;;;;;6.72;2.40;;;;;;;-0.97;82.02;98063.84;1798643;78;21232;-66
2021/04/07 02:00:10;;;;;;;6.10;2.60;;;;;;;-0.98;81.91;98063.00;1808549;78;21230;-65
2021/04/07 02:02:38;;;;;;;3.70;2.30;;;;;;;-0.96;82.00;98060.38;1810029;78;21199;-65
2021/04/07 02:05:07;;;;;;;2.98;2.20;;;;;;;-0.98;81.88;98065.98;1809641;78;21186;-65
2021/04/07 02:07:34;;;;;;;4.30;2.25;;;;;;;-0.99;81.95;98063.87;1806008;78;21144;-65
2021/04/07 02:10:03;;;;;;;3.67;2.40;;;;;;;-0.97;82.02;98065.95;1787929;78;21137;-65
2021/04/07 02:12:31;;;;;;;3.40;2.37;;;;;;;-0.95;82.00;98062.09;1807275;78;21645;-66
2021/04/07 02:14:59;;;;;;;6.83;2.27;;;;;;;-0.93;82.03;98066.25;1806814;77;21424;-65
2021/04/07 02:17:26;;;;;;;5.40;1.87;;;;;;;-0.92;81.98;98067.13;1810214;78;21246;-65
2021/04/07 02:19:55;;;;;;;5.30;2.05;;;;;;;-0.95;81.89;98050.11;1807039;78;21143;-66
2021/04/07 02:22:22;;;;;;;4.17;2.42;;;;;;;-0.97;81.90;98056.16;1799069;78;21684;-65
2021/04/07 02:24:50;;;;;;;4.58;2.12;;;;;;;-0.99;81.90;98051.50;1773735;79;26549;-66
2021/04/07 02:27:21;;;;;;;4.65;1.95;;;;;;;-1.04;81.89;98058.02;1810325;78;21649;-65
2021/04/07 02:29:55;;;;;;;3.92;1.60;;;;;;;-1.06;81.93;98064.09;1783759;78;21136;-66
2021/04/07 02:33:05;;;;;;;2.83;1.75;;;;;;;-1.04;81.92;98057.19;1822491;76;22360;-65
2021/04/07 02:35:32;;;;;;;5.05;2.20;;;;;;;-1.09;81.96;98061.59;1797997;78;21001;-65
2021/04/07 02:37:59;;;;;;;5.60;2.08;;;;;;;-1.08;82.05;98055.61;1801176;78;21347;-65
2021/04/07 02:40:26;;;;;;;2.70;1.95;;;;;;;-1.06;82.09;98056.41;1797750;77;21391;-64
2021/04/07 02:42:53;;;;;;;4.65;2.05;;;;;;;-1.06;82.04;98053.85;1796875;78;21117;-65
2021/04/07 02:45:21;;;;;;;5.30;2.22;;;;;;;-1.05;82.06;98056.80;1798455;78;21036;-65
2021/04/07 02:47:48;;;;;;;2.30;1.87;;;;;;;-1.01;82.10;98050.70;1798315;78;21030;-64
2021/04/07 02:50:16;;;;;;;3.33;1.85;;;;;;;-1.00;82.12;98056.23;1800540;78;21345;-65
2021/04/07 02:52:43;;;;;;;5.70;2.00;;;;;;;-0.98;82.11;98059.58;1794280;78;21068;-66
2021/04/07 02:55:12;;;;;;;3.40;2.08;;;;;;;-0.97;82.12;98061.28;1794798;78;21082;-64
2021/04/07 02:57:39;;;;;;;3.62;2.35;;;;;;;-0.94;82.16;98056.06;1794539;78;21128;-65
2021/04/07 03:00:08;;;;;;;;;;;;;;;-0.91;82.17;98058.55;1803514;78;21195;-65
2021/04/07 03:02:35;;;;;;;2.95;2.02;;;;;;;-0.90;82.16;98053.80;1795710;77;21082;-65
2021/04/07 03:05:07;;;;;;;2.72;1.98;;;;;;;-0.88;82.15;98055.06;1793775;78;21037;-65
2021/04/07 03:07:39;;;;;;;3.40;2.10;;;;;;;-0.88;82.10;98046.92;1802639;77;21060;-66
2021/04/07 03:10:09;;;;;;;4.05;2.00;;;;;;;-0.90;82.07;98049.96;1793496;78;21801;-65
2021/04/07 03:12:39;;;;;;;6.33;2.27;;;;;;;-0.91;82.09;98058.55;1801051;78;21182;-65
2021/04/07 03:15:09;;;;;;;3.55;2.42;;;;;;;-0.88;82.18;98062.30;1797077;78;21282;-65
2021/04/07 03:17:38;;;;;;;3.27;2.20;;;;;;;-0.89;82.17;98061.91;1801183;77;21053;-66
2021/04/07 03:20:08;;;;;;;6.85;2.58;;;;;;;-0.88;82.18;98057.17;1780257;78;22116;-66
2021/04/07 03:22:36;;;;;;;3.20;2.83;;;;;;;-0.90;82.22;98067.89;1798329;78;21223;-65
2021/04/07 03:25:05;;;;;;;;;;;;;;;-0.87;82.23;98056.72;1799422;77;21212;-66
2021/04/07 03:27:32;;;;;;;6.50;2.80;;;;;;;-0.88;82.19;98061.02;1794279;78;22327;-66
2021/04/07 03:30:00;;;;;;;5.92;2.62;;;;;;;-0.90;82.25;98060.21;1792895;77;23602;-65
2021/04/07 03:32:27;;;;;;;;;;;;;;;-0.88;82.25;98057.62;1798139;78;21199;-66
2021/04/07 03:34:56;;;;;;;4.45;2.62;;;;;;;-0.91;82.26;98051.69;1804827;78;20246;-65
2021/04/07 03:37:23;;;;;;;7.42;2.65;;;;;;;-0.92;82.25;98055.14;1812306;78;21082;-65
2021/04/07 03:39:51;;;;;;;4.17;2.37;;;;;;;-0.94;82.23;98055.62;1800096;77;21121;-66
2021/04/07 03:42:18;;;;;;;4.83;2.70;;;;;;;-0.96;82.29;98061.22;1804554;78;21772;-66
2021/04/07 03:44:45;;;;;;;5.78;2.58;;;;;;;-0.96;82.29;98060.38;1799137;78;21044;-66
2021/04/07 03:47:12;;;;;;;4.35;2.22;;;;;;;-0.97;82.31;98063.84;1801234;78;21160;-66
2021/04/07 03:49:39;;;;;;;2.90;2.02;;;;;;;-0.97;82.39;98058.72;1801450;78;22265;-65
2021/04/07 03:52:06;;;;;;;6.28;3.02;;;;;;;-0.99;82.44;98066.42;1804992;78;21242;-65
2021/04/07 03:54:33;;;;;;;4.15;2.47;;;;;;;-1.03;82.41;98066.58;1797381;78;21238;-66
2021/04/07 03:57:01;;;;;;;5.10;2.80;;;;;;;-1.03;82.44;98074.26;1797846;78;21618;-66
2021/04/07 03:59:28;;;;;;;7.10;2.75;;;;;;;-1.03;82.54;98071.70;1800406;78;21158;-66
2021/04/07 04:01:55;;;;;;;;;;;;;;;-1.01;82.63;98072.47;1801031;78;21626;-66
2021/04/07 04:04:22;;;;;;;5.47;2.45;;;;;;;-0.96;82.65;98075.76;1799766;78;22790;-66
2021/04/07 04:06:49;;;;;;;5.35;2.45;;;;;;;-0.96;82.62;98077.03;1798927;78;23902;-66
2021/04/07 04:09:16;;;;;;;3.30;2.37;;;;;;;-0.97;82.64;98076.65;1797032;78;21048;-65
2021/04/07 04:11:44;;;;;;;3.08;2.55;;;;;;;-0.94;82.66;98084.25;1803906;78;21632;-65
2021/04/07 04:14:11;;;;;;;4.58;2.70;;;;;;;-0.93;82.69;98083.36;1807093;78;21178;-65
2021/04/07 04:16:38;;;;;;;5.47;2.67;;;;;;;-0.91;82.68;98086.73;1800564;78;22615;-65
2021/04/07 04:19:05;;;;;;;5.22;2.65;;;;;;;-0.91;82.60;98089.28;1800605;78;21214;-65
2021/04/07 04:21:31;;;;;;;4.55;2.60;;;;;;;-0.91;82.63;98086.73;1801687;78;21554;-65
2021/04/07 04:23:58;;;;;;;6.42;2.62;;;;;;;-0.93;82.61;98089.77;1802238;77;21226;-65
2021/04/07 04:26:28;;;;;;;3.62;2.45;;;;;;;-0.92;82.66;98092.74;1798802;77;21192;-65
2021/04/07 04:28:55;;;;;;;2.62;2.40;;;;;;;-0.90;82.71;98096.08;1801409;78;22098;-65
2021/04/07 04:31:24;;;;;;;6.03;2.70;;;;;;;-0.87;82.69;98097.27;1801417;77;21190;-65
2021/04/07 04:33:51;;;;;;;4.30;2.75;;;;;;;-0.82;82.70;98096.71;1788535;78;21068;-65
2021/04/07 04:36:18;;;;;;;6.37;2.30;;;;;;;-0.79;82.72;98094.06;1791121;78;21697;-65
2021/04/07 04:38:46;;;;;;;5.30;3.25;;;;;;;-0.73;82.74;98091.36;1784608;79;21244;-65
2021/04/07 04:41:13;;;;;;;;;;;;;;;-0.70;82.69;98101.52;1794838;79;22815;-65
2021/04/07 04:43:40;;;;;;;5.03;2.83;;;;;;;-0.68;82.70;98099.73;1784198;78;20187;-65
2021/04/07 04:46:09;;;;;;;4.40;3.00;;;;;;;-0.65;82.79;98092.85;1788355;79;21053;-65
2021/04/07 04:48:36;;;;;;;7.08;3.02;;;;;;;-0.65;82.70;98097.98;1790785;79;21175;-65
2021/04/07 04:51:05;;;;;;;4.17;3.02;;;;;;;-0.64;82.64;98098.36;1714883;81;21188;-65
2021/04/07 04:53:32;;;;;;;4.20;3.00;;;;;;;-0.60;82.78;98108.95;1709638;82;22272;-65
2021/04/07 04:56:00;;;;;;;4.83;2.60;;;;;;;-0.56;82.73;98104.98;1732311;81;21080;-65
2021/04/07 04:58:27;;;;;;;8.10;5.40;;;;;;;-0.51;82.73;98108.23;1728695;82;21675;-66
2021/04/07 05:00:54;;;;;;;5.22;3.15;;;;;;;-0.49;82.72;98117.17;1724344;82;21206;-66
2021/04/07 05:03:23;;;;;;;7.22;3.90;;;;;;;-0.46;82.77;98109.39;1724846;81;21679;-65
2021/04/07 05:05:52;;;;;;;4.70;3.02;;;;;;;-0.43;82.79;98113.14;1728281;82;21145;-66
2021/04/07 05:08:21;;;;;;;4.95;3.20;;;;;;;-0.40;82.70;98108.38;1733469;81;21180;-65
2021/04/07 05:10:50;;;;;;;8.28;3.37;;;;;;;-0.42;82.66;98118.69;1734137;81;21212;-64
2021/04/07 05:13:17;;;;;;;4.78;3.60;;;;;;;-0.37;82.80;98120.66;1731234;81;21377;-65
2021/04/07 05:15:45;;;;;;;6.37;3.75;;;;;;;-0.27;82.96;98123.37;1732180;81;21233;-66
2021/04/07 05:18:14;;;;;;;5.65;3.77;;;;;;;-0.03;83.13;98129.92;1735371;81;21202;-65
2021/04/07 05:20:43;;;;;;;7.85;3.50;;;;;;;0.14;82.88;98126.44;1732835;81;21063;-65
2021/04/07 05:23:11;;;;;;;5.30;3.15;;;;;;;0.19;82.68;98132.69;1737718;81;21051;-65
2021/04/07 05:25:38;;;;;;;4.47;2.80;;;;;;;0.20;82.63;98136.50;1730728;81;21174;-64
2021/04/07 05:28:07;;;;;;;7.08;3.72;;;;;;;0.20;82.52;98131.38;1730323;81;21822;-64
2021/04/07 05:33:23;;;;;;;6.70;3.20;;;;;;;0.37;83.00;98136.43;1742898;80;21225;-65
2021/04/07 05:35:51;;;;;;;7.25;3.55;;;;;;;0.71;83.00;98131.49;1741580;81;21262;-65
2021/04/07 05:38:21;;;;;;;10.35;3.22;;;;;;;0.80;82.56;98132.46;1742777;81;21660;-64
2021/04/07 05:40:52;;;;;;;8.13;3.33;;;;;;;0.77;82.31;98141.56;1742393;79;21579;-65
2021/04/07 05:43:19;;;;;;;10.55;3.80;;;;;;;0.71;82.37;98136.63;1741119;81;21290;-64
2021/04/07 05:45:47;;;;;;;4.83;3.05;;;;;;;0.62;82.34;98133.47;1740039;80;21717;-64
2021/04/07 05:48:14;;;;;;;8.13;3.95;;;;;;;0.60;82.38;98131.38;1741613;81;21586;-64
2021/04/07 05:50:45;;;;;;;10.15;3.95;;;;;;;0.56;82.38;98138.81;1739759;81;21215;-65
2021/04/07 05:53:13;;;;;;;7.62;3.80;;;;;;;0.59;82.57;98141.27;1746201;81;21009;-64
2021/04/07 05:55:52;;;;;;;6.78;3.83;;;;;;;0.60;82.50;98142.94;1737555;81;21179;-65
2021/04/07 05:58:20;;;;;;;10.95;3.60;;;;;;;0.69;82.68;98135.83;1748608;81;21597;-65
2021/04/07 06:01:10;;;;;;;8.38;3.27;;;;;;;0.80;82.71;98141.45;1744660;81;21061;-64
2021/04/07 06:03:40;;;;;;;8.00;3.47;;;;;;;0.93;82.75;98142.73;1705361;82;21592;-64
2021/04/07 06:06:08;;;;;;;10.18;3.70;;;;;;;1.04;82.55;98149.64;1729334;80;21569;-65
2021/04/07 06:08:35;;;;;;;;;;;;;;;1.13;82.46;98148.94;1717487;81;21238;-65
2021/04/07 06:11:04;;;;;;;8.55;4.50;;;;;;;1.13;82.33;98146.36;1691930;83;20253;-65
2021/04/07 06:13:33;;;;;;;;;;;;;;;1.16;82.47;98146.25;1706217;82;21041;-65
2021/04/07 06:16:01;;;;;;;9.33;3.70;;;;;;;1.28;82.37;98153.53;1709067;82;20329;-65
2021/04/07 06:18:29;;;;;;;5.78;3.08;;;;;;;1.38;82.49;98165.19;1709530;82;25949;-65
2021/04/07 06:21:00;;;;;;;12.18;4.12;;;;;;;1.52;82.24;98170.68;1704948;82;21725;-64
2021/04/07 06:23:37;;;;;;;7.85;4.25;;;;;;;1.50;82.07;98162.17;1711132;81;21590;-65
2021/04/07 06:26:06;;;;;;;8.03;4.03;;;;;;;1.64;82.20;98169.39;1675701;83;21217;-63
2021/04/07 06:28:35;;;;;;;7.08;4.08;;;;;;;1.74;82.18;98168.18;1697692;83;21638;-63
2021/04/07 06:32:53;;;;;;;10.63;4.30;;;;;;;1.78;81.95;98174.05;1831455;76;22935;-64
2021/04/07 06:35:24;;;;;;;8.35;4.72;;;;;;;1.78;82.07;98176.62;1800111;79;21084;-64
2021/04/07 06:39:43;;;;;;;9.58;3.60;;;;;;;1.86;81.90;98174.61;1796910;78;22456;-64
2021/04/07 06:42:11;;;;;;;6.65;3.20;;;;;;;1.92;82.13;98173.09;1771381;80;21598;-64
2021/04/07 06:44:38;;;;;;;9.73;3.65;;;;;;;2.09;82.20;98181.92;1769343;79;21282;-64
2021/04/07 06:47:06;;;;;;;9.38;3.30;;;;;;;2.28;82.22;98176.47;1762190;79;21092;-64
2021/04/07 06:49:35;;;;;;;7.83;3.02;;;;;;;2.56;82.11;98177.97;1768173;79;21101;-64
2021/04/07 06:52:06;;;;;;;7.67;4.03;;;;;;;2.67;82.01;98188.70;1766195;79;21029;-64
2021/04/07 06:54:36;;;;;;;8.03;3.65;;;;;;;2.76;81.78;98185.74;1769332;80;21072;-65
2021/04/07 06:57:04;;;;;;;8.40;3.72;;;;;;;2.79;81.59;98185.61;1766786;80;22184;-64
2021/04/07 06:59:38;;;;;;;7.62;3.98;;;;;;;2.85;81.77;98189.69;1745883;80;21021;-65
2021/04/07 07:02:06;;;;;;;10.28;3.85;;;;;;;2.83;81.50;98189.77;1767996;79;21618;-65
2021/04/07 07:04:33;;;;;;;10.43;4.17;;;;;;;2.77;81.51;98193.85;1766033;79;21839;-65
2021/04/07 07:07:06;;;;;;;9.45;3.98;;;;;;;2.70;81.39;98206.61;1766375;80;21199;-65
2021/04/07 07:09:36;;;;;;;11.03;3.50;;;;;;;2.58;81.52;98204.53;1750197;80;21657;-64
2021/04/07 07:14:49;;;;;;;8.60;3.75;;;;;;;2.66;81.82;98216.21;1825906;77;22827;-65
2021/04/07 07:17:32;;;;;;;16.37;3.90;;;;;;;2.59;81.49;98221.66;1802075;77;21004;-63
2021/04/07 07:20:00;;;;;;;8.63;3.62;;;;;;;2.61;81.67;98217.29;1803301;77;21405;-66
2021/04/07 07:22:30;;;;;;;7.33;3.25;;;;;;;2.66;81.75;98212.77;1797079;77;21711;-65
2021/04/07 07:25:04;;;;;;;8.30;3.40;;;;;;;2.83;82.04;98215.54;1804545;78;21394;-65
2021/04/07 07:27:43;;;;;;;13.50;5.28;;;;;;;3.05;81.89;98217.23;1802191;78;21008;-66
2021/04/07 07:30:15;;;;;;;7.22;3.15;;;;;;;3.24;81.88;98217.33;1774607;78;21020;-64
2021/04/07 07:32:44;;;;;;;9.60;3.52;;;;;;;3.42;81.81;98220.86;1802569;78;22164;-64
2021/04/07 07:35:15;;;;;;;11.48;4.42;;;;;;;3.57;81.86;98221.06;1793500;78;21226;-64
2021/04/07 07:37:44;;;;;;;6.95;3.33;;;;;;;3.71;81.68;98225.63;1795249;78;21602;-64
2021/04/07 07:40:24;;;;;;;12.60;4.50;;;;;;;3.84;81.44;98233.70;1761186;79;21160;-64
2021/04/07 07:42:53;;;;;;;22.80;4.50;;;;;;;3.72;80.91;98231.17;1744151;81;21040;-64
2021/04/07 07:45:31;;;;;;;14.40;4.22;;;;;;;3.56;81.15;98232.30;1714774;81;22612;-65
2021/04/07 07:48:12;;;;;;;11.25;3.90;;;;;;;3.52;81.06;98238.94;1742637;81;21171;-64
2021/04/07 07:50:43;;;;;;;10.28;4.28;;;;;;;3.29;80.89;98236.86;1743032;80;21280;-65
2021/04/07 07:53:24;;;;;;;8.60;3.37;;;;;;;3.20;81.21;98239.83;1727222;81;21092;-65
2021/04/07 07:55:54;;;;;;;12.82;3.60;;;;;;;3.23;81.27;98241.45;1732337;81;21219;-65
2021/04/07 07:58:28;;;;;;;13.58;3.90;;;;;;;3.36;81.39;98242.17;1746189;81;22362;-65
2021/04/07 08:01:05;;;;;;;13.95;3.60;;;;;;;3.58;81.52;98237.38;1746453;81;21072;-64
2021/04/07 08:03:35;;;;;;;19.25;3.90;;;;;;;3.86;81.53;98241.36;1738051;81;21088;-65
2021/04/07 08:06:04;;;;;;;11.30;4.05;;;;;;;4.23;81.76;98241.41;1738253;81;21020;-65
2021/04/07 08:08:31;;;;;;;12.88;3.52;;;;;;;4.62;81.59;98243.08;1743900;81;21577;-66
2021/04/07 08:10:59;;;;;;;11.43;2.98;;;;;;;4.90;81.32;98241.75;1739368;81;21208;-65
2021/04/07 08:13:31;;;;;;;10.48;4.28;;;;;;;5.11;80.57;98230.84;1737916;81;21120;-65
2021/04/07 08:16:00;;;;;;;7.67;3.37;;;;;;;5.25;80.72;98246.98;1744922;81;21538;-65
2021/04/07 08:18:29;;;;;;;10.23;3.30;;;;;;;5.34;80.24;98251.70;1723103;81;21627;-65
2021/04/07 08:20:57;;;;;;;11.18;2.70;;;;;;;5.41;80.20;98249.20;1747657;81;21203;-65
2021/04/07 08:23:26;;;;;;;11.60;3.50;;;;;;;5.54;80.38;98254.13;1743883;81;21212;-64
2021/04/07 08:25:55;;;;;;;10.75;2.80;;;;;;;5.61;79.94;98250.33;1742327;81;21635;-65
2021/04/07 08:28:23;;;;;;;11.97;2.30;;;;;;;5.75;79.81;98251.39;1738205;81;21065;-65
2021/04/07 08:30:52;;;;;;;6.80;2.67;;;;;;;5.67;79.41;98248.34;1749176;81;21200;-64
2021/04/07 08:33:20;;;;;;;17.65;2.80;;;;;;;5.72;79.73;98248.95;1743900;81;21080;-65
2021/04/07 08:35:53;;;;;;;8.30;2.42;;;;;;;5.71;79.32;98244.67;1746087;81;22173;-65
2021/04/07 08:38:33;;;;;;;8.75;3.08;;;;;;;5.72;79.63;98254.14;1740580;81;21203;-65
2021/04/07 08:41:19;;;;;;;9.73;3.22;;;;;;;5.90;80.03;98251.88;1743220;81;21099;-65
2021/04/07 08:43:47;;;;;;;6.62;2.37;;;;;;;6.21;80.00;98254.20;1741848;81;21072;-64
2021/04/07 08:48:56;;;;;;;6.03;1.62;;;;;;;6.68;78.59;98245.63;1822341;77;22037;-64
2021/04/07 08:51:27;;;;;;;7.83;2.10;;;;;;;6.39;78.00;98248.05;1799395;78;21651;-64
2021/04/07 08:53:57;;;;;;;8.75;2.37;;;;;;;6.26;78.43;98254.80;1795964;78;21637;-64
2021/04/07 08:56:34;;;;;;;11.15;2.55;;;;;;;6.03;78.07;98251.66;1800604;78;21016;-64
2021/04/07 08:59:04;;;;;;;11.25;2.50;;;;;;;6.03;78.22;98254.25;1795083;78;20957;-64
2021/04/07 09:01:37;;;;;;;9.65;2.90;;;;;;;6.03;78.00;98262.02;1797463;78;21056;-65
2021/04/07 09:04:14;;;;;;;4.58;1.82;;;;;;;5.90;77.89;98269.18;1797632;77;21124;-64
2021/04/07 09:07:00;;;;;;;10.63;2.40;;;;;;;5.59;77.02;98259.08;1801795;77;21892;-65
2021/04/07 09:09:36;;;;;;;7.28;2.20;;;;;;;5.08;77.24;98270.63;1801776;78;21056;-64
2021/04/07 09:12:05;;;;;;;6.67;2.35;;;;;;;4.84;77.69;98275.67;1802679;78;21535;-65
2021/04/07 09:14:40;;;;;;;5.70;2.37;;;;;;;4.79;78.02;98269.88;1797154;78;21125;-65
2021/04/07 09:17:07;;;;;;;7.33;2.37;;;;;;;4.94;78.58;98271.75;1717464;81;21233;-64
2021/04/07 09:19:37;;;;;;;9.68;2.50;;;;;;;5.27;78.96;98268.46;1750264;80;22325;-65
2021/04/07 09:22:09;;;;;;;12.88;3.27;;;;;;;5.42;78.22;98266.86;1735554;81;21222;-64
2021/04/07 09:24:47;;;;;;;7.10;2.22;;;;;;;5.50;78.36;98265.56;1761310;80;21124;-65
2021/04/07 09:27:27;;;;;;;8.10;2.40;;;;;;;5.55;78.19;98271.36;1760129;80;21219;-64
2021/04/07 09:30:11;;;;;;;5.22;2.08;;;;;;;5.65;78.12;98273.47;1742332;80;21261;-65
2021/04/07 09:33:06;;;;;;;8.15;2.33;;;;;;;5.58;75.61;98264.72;1750596;80;21202;-65
2021/04/07 09:35:37;;;;;;;7.00;2.33;;;;;;;5.43;77.34;98268.06;1681194;83;21298;-64
2021/04/07 09:38:06;;;;;;;12.33;2.27;;;;;;;5.46;76.74;98262.76;1659488;84;21624;-64
2021/04/07 09:40:34;;;;;;;8.10;2.62;;;;;;;5.78;77.58;98264.17;1680149;84;21150;-65
2021/04/07 09:43:02;;;;;;;5.37;1.90;;;;;;;6.31;78.20;98263.17;1683300;83;21167;-65
2021/04/07 09:45:30;;;;;;;6.30;2.33;;;;;;;6.68;76.87;98263.77;1654872;84;22213;-65
2021/04/07 09:47:59;;;;;;;6.20;2.20;;;;;;;6.86;76.64;98265.38;1680927;83;21217;-64
2021/04/07 09:50:35;;;;;;;6.60;1.98;;;;;;;7.11;76.98;98261.38;1688667;83;21198;-64
2021/04/07 09:53:02;;;;;;;5.42;2.05;;;;;;;7.08;75.99;98270.17;1657697;85;21739;-64
2021/04/07 09:55:31;;;;;;;7.95;2.30;;;;;;;7.03;76.38;98271.36;1682203;83;21231;-64
2021/04/07 09:58:06;;;;;;;7.22;2.52;;;;;;;6.93;75.36;98267.16;1678283;83;21226;-64
2021/04/07 10:00:36;;;;;;;9.68;2.30;;;;;;;6.77;75.74;98281.42;1681328;84;21219;-64
2021/04/07 10:03:06;;;;;;;6.30;1.52;;;;;;;6.98;76.35;98275.99;1682017;84;21191;-65
2021/04/07 10:05:33;;;;;;;8.05;2.27;;;;;;;7.22;75.63;98274.59;1686539;83;21216;-65
2021/04/07 10:08:23;;;;;;;8.43;2.10;;;;;;;7.37;75.86;98271.14;1665045;84;22131;-65
2021/04/07 10:10:49;;;;;;;8.00;1.95;;;;;;;7.63;75.88;98270.09;1663166;84;21237;-65
2021/04/07 10:13:17;;;;;;;9.30;2.15;;;;;;;7.92;75.75;98266.23;1661904;84;21068;-64
2021/04/07 10:15:44;;;;;;;5.85;1.82;;;;;;;8.10;75.18;98267.74;1665605;84;21676;-65
2021/04/07 10:18:11;;;;;;;4.60;1.47;;;;;;;7.99;74.77;98270.15;1678875;83;21221;-65
2021/04/07 10:20:42;;;;;;;8.98;2.15;;;;;;;7.68;71.13;98274.56;1674401;83;21120;-64
2021/04/07 10:23:16;;;;;;;5.45;1.50;;;;;;;7.10;73.23;98275.30;1652006;84;22229;-65
2021/04/07 10:25:40;;;;;;;4.08;1.55;;;;;;;6.71;73.54;98290.38;1681255;83;21629;-65
2021/04/07 10:28:12;;;;;;;6.12;1.67;;;;;;;6.38;73.05;98290.42;1649598;84;21264;-65
2021/04/07 10:30:43;;;;;;;3.12;1.50;;;;;;;6.26;73.76;98287.20;1650375;84;21237;-65
2021/04/07 10:33:10;;;;;;;8.98;2.00;;;;;;;6.24;70.06;98298.09;1684607;83;21242;-65
2021/04/07 10:35:40;;;;;;;11.12;1.77;;;;;;;6.24;71.55;98295.03;1678385;84;21229;-65
2021/04/07 10:38:13;;;;;;;2.70;0.93;;;;;;;6.23;72.13;98293.84;1632522;85;21277;-65
2021/04/07 10:40:45;;;;;;;9.18;1.20;;;;;;;5.94;65.50;98302.66;1682366;83;21222;-65
2021/04/07 10:43:17;;;;;;;9.03;1.30;;;;;;;5.78;70.10;98314.69;1683314;83;21098;-65
2021/04/07 10:46:06;;;;;;;7.03;1.25;;;;;;;5.51;69.28;98316.41;1656455;83;21217;-65
2021/04/07 10:48:37;;;;;;;5.47;1.52;;;;;;;5.50;71.03;98309.58;1678448;84;22295;-64
2021/04/07 10:51:05;;;;;;;6.60;1.55;;;;;;;5.66;70.89;98312.69;1683674;83;21182;-65
2021/04/07 10:53:43;;;;;;;16.12;3.85;;;;;;;5.76;71.01;98307.44;1682242;84;21226;-65
2021/04/07 10:56:20;;;;;;;29.25;4.03;;;;;;;5.91;71.54;98311.86;1658419;83;21685;-65
2021/04/07 11:01:37;;;;;;;7.42;1.72;;;;;;;6.18;71.04;98298.42;1831706;77;22759;-64
2021/04/07 11:04:14;;;;;;;4.22;1.00;;;;;;;6.49;71.29;98304.95;1764131;78;21158;-64
2021/04/07 11:06:41;;;;;;;10.80;1.92;;;;;;;6.85;71.43;98306.48;1796400;78;21249;-64
2021/04/07 11:09:16;;;;;;;7.60;1.45;;;;;;;7.28;71.47;98308.02;1801369;78;21634;-64
2021/04/07 11:11:45;;;;;;;6.17;1.90;;;;;;;7.39;70.62;98313.45;1795001;77;21180;-65
2021/04/07 11:14:15;;;;;;;4.37;0.98;;;;;;;7.20;70.45;98294.63;1776314;78;21021;-65
2021/04/07 11:16:45;;;;;;;7.67;1.85;;;;;;;6.81;60.97;98321.86;1800913;77;21024;-65
2021/04/07 11:19:19;;;;;;;4.30;1.50;;;;;;;6.26;67.00;98319.13;1799029;78;21257;-64
2021/04/07 11:21:50;;;;;;;11.00;4.83;;;;;;;5.81;65.63;98331.36;1799350;78;21064;-65
2021/04/07 11:24:18;;;;;;;13.53;4.53;;;;;;;5.53;65.07;98338.36;1797287;77;21649;-65
2021/04/07 11:26:45;;;;;;;5.55;2.12;;;;;;;5.73;68.12;98333.49;1796456;77;21198;-66
2021/04/07 11:29:12;;;;;;;7.58;1.85;;;;;;;5.79;67.77;98342.25;1796664;77;21567;-65
2021/04/07 11:31:40;;;;;;;4.62;1.20;;;;;;;5.90;68.33;98341.25;1795204;77;22029;-65
2021/04/07 11:34:11;;;;;;;10.08;2.42;;;;;;;6.15;65.90;98341.34;1796278;78;21634;-65
2021/04/07 11:46:43;;;;;;;10.23;1.30;;;;;;;6.76;66.07;98347.20;1797018;78;22240;-66
2021/04/07 11:49:10;;;;;;;6.45;1.20;;;;;;;6.95;68.19;98337.98;1802752;78;28411;-66
2021/04/07 11:51:40;;;;;;;15.68;1.87;;;;;;;7.22;65.66;98342.09;1793912;78;21228;-65
2021/04/07 11:54:10;;;;;;;7.40;1.60;;;;;;;7.22;66.84;98342.55;1796981;78;21195;-65
2021/04/07 11:56:42;;;;;;;7.17;1.50;;;;;;;7.39;67.33;98345.91;1799899;77;21223;-65
2021/04/07 11:59:09;;;;;;;4.10;1.25;;;;;;;7.53;66.90;98343.80;1802818;77;21194;-66
2021/04/07 12:01:38;;;;;;;1.98;1.00;;;;;;;7.37;66.44;98337.82;1802671;78;21258;-66
2021/04/07 12:04:05;;;;;;;;;;;;;;;7.28;64.59;98345.67;1806261;78;21682;-66
2021/04/07 12:06:32;;;;;;;3.92;0.90;;;;;;;6.77;62.52;98348.88;1797033;77;20262;-66
2021/04/07 12:08:59;;;;;;;3.92;1.10;;;;;;;6.56;63.52;98352.63;1799218;77;21711;-66
2021/04/07 12:11:27;;;;;;;4.35;0.90;;;;;;;6.57;65.36;98349.10;1801914;78;21218;-66
2021/04/07 12:13:54;;;;;;;2.77;1.10;;;;;;;6.66;65.49;98342.13;1805333;78;21236;-66
2021/04/07 12:16:22;;;;;;;2.15;1.00;;;;;;;6.56;62.53;98344.84;1799764;77;21250;-66
2021/04/07 12:18:49;;;;;;;;;;;;;;;6.47;63.08;98359.97;1801923;78;21183;-63